createdAt,value
2022-09-22T00:00:25.596Z,99.90
2022-09-22T00:02:56.162Z,99.90
2022-09-22T00:05:23.940Z,99.90
2022-09-22T00:07:53.142Z,99.90
2022-09-22T00:10:21.707Z,99.90
2022-09-22T00:12:49.373Z,99.90
2022-09-22T00:15:17.422Z,99.90
2022-09-22T00:17:45.644Z,99.90
2022-09-22T00:20:15.921Z,99.90
2022-09-22T00:22:42.782Z,99.90
2022-09-22T00:25:10.340Z,99.90
2022-09-22T00:27:37.073Z,99.90
2022-09-22T00:30:04.275Z,99.90
2022-09-22T00:32:30.987Z,99.90
2022-09-22T00:34:57.702Z,99.90
2022-09-22T00:37:24.638Z,99.90
2022-09-22T00:39:53.763Z,99.90
2022-09-22T00:42:20.973Z,99.90
2022-09-22T00:44:47.909Z,99.90
2022-09-22T00:47:30.998Z,99.90
2022-09-22T00:50:22.184Z,99.90
2022-09-22T00:52:59.715Z,99.90
2022-09-22T00:56:00.529Z,99.90
2022-09-22T00:58:33.207Z,99.90
2022-09-22T01:01:00.108Z,99.90
2022-09-22T01:03:29.830Z,99.90
2022-09-22T01:06:01.373Z,99.90
2022-09-22T01:08:28.567Z,99.90
2022-09-22T01:10:55.446Z,99.90
2022-09-22T01:13:33.917Z,99.90
2022-09-22T01:16:22.608Z,99.90
2022-09-22T01:19:14.258Z,99.90
2022-09-22T01:21:51.582Z,99.90
2022-09-22T01:24:27.755Z,99.90
2022-09-22T01:27:27.692Z,99.90
2022-09-22T01:30:16.900Z,99.90
2022-09-22T01:32:56.473Z,99.90
2022-09-22T01:36:08.677Z,99.90
2022-09-22T01:38:38.444Z,99.90
2022-09-22T01:41:08.821Z,99.90
2022-09-22T01:43:55.146Z,99.90
2022-09-22T01:46:27.441Z,99.90
2022-09-22T01:48:54.282Z,99.90
2022-09-22T01:51:27.121Z,99.90
2022-09-22T01:53:56.982Z,99.90
2022-09-22T01:56:24.147Z,99.90
2022-09-22T01:58:56.941Z,99.90
2022-09-22T02:01:26.605Z,99.90
2022-09-22T02:03:55.904Z,99.90
2022-09-22T02:06:44.838Z,99.90
2022-09-22T02:09:12.908Z,99.90
2022-09-22T02:11:39.874Z,99.90
2022-09-22T02:14:06.640Z,99.90
2022-09-22T02:16:33.762Z,99.90
2022-09-22T02:19:18.518Z,99.90
2022-09-22T02:21:46.874Z,99.90
2022-09-22T02:24:29.980Z,99.90
2022-09-22T02:27:09.063Z,99.90
2022-09-22T02:29:39.350Z,99.90
2022-09-22T02:32:07.873Z,99.90
2022-09-22T02:34:34.648Z,99.90
2022-09-22T02:37:19.210Z,99.90
2022-09-22T02:40:06.966Z,99.90
2022-09-22T02:42:55.443Z,99.90
2022-09-22T02:45:23.686Z,99.90
2022-09-22T02:48:02.946Z,99.90
2022-09-22T02:50:30.066Z,99.90
2022-09-22T02:52:59.082Z,99.90
2022-09-22T02:55:25.911Z,99.90
2022-09-22T02:57:52.670Z,99.90
2022-09-22T03:00:19.429Z,99.90
2022-09-22T03:02:46.220Z,99.90
2022-09-22T03:05:12.983Z,99.90
2022-09-22T03:07:39.947Z,99.90
2022-09-22T03:10:07.965Z,99.90
2022-09-22T03:12:34.701Z,99.90
2022-09-22T03:15:01.543Z,99.90
2022-09-22T03:17:28.266Z,99.90
2022-09-22T03:19:55.008Z,99.90
2022-09-22T03:22:21.662Z,99.90
2022-09-22T03:24:48.395Z,99.90
2022-09-22T03:27:15.188Z,99.90
2022-09-22T03:29:41.921Z,99.90
2022-09-22T03:32:08.620Z,99.90
2022-09-22T03:34:35.462Z,99.90
2022-09-22T03:37:02.136Z,99.90
2022-09-22T03:39:28.850Z,99.90
2022-09-22T03:41:55.548Z,99.90
2022-09-22T03:44:22.273Z,99.90
2022-09-22T03:46:48.978Z,99.90
2022-09-22T03:49:15.625Z,99.90
2022-09-22T03:51:42.306Z,99.90
2022-09-22T03:54:08.999Z,99.90
2022-09-22T03:56:35.708Z,99.90
2022-09-22T03:59:02.481Z,99.90
2022-09-22T04:01:29.860Z,99.90
2022-09-22T04:03:58.882Z,99.90
2022-09-22T04:06:25.651Z,99.90
2022-09-22T04:08:52.312Z,99.90
2022-09-22T04:11:18.970Z,99.90
2022-09-22T04:13:46.603Z,99.90
2022-09-22T04:16:13.714Z,99.90
2022-09-22T04:18:40.694Z,99.90
2022-09-22T04:21:07.741Z,99.90
2022-09-22T04:23:34.841Z,99.90
2022-09-22T04:26:02.049Z,99.90
2022-09-22T04:28:29.033Z,99.90
2022-09-22T04:30:56.058Z,99.90
2022-09-22T04:33:23.387Z,99.90
2022-09-22T04:35:50.573Z,99.90
2022-09-22T04:38:17.929Z,99.90
2022-09-22T04:40:45.144Z,99.90
2022-09-22T04:43:12.294Z,99.90
2022-09-22T04:45:39.903Z,99.90
2022-09-22T04:48:06.701Z,99.90
2022-09-22T04:50:33.435Z,99.90
2022-09-22T04:53:00.129Z,99.90
2022-09-22T04:55:27.615Z,99.90
2022-09-22T04:57:57.576Z,99.90
2022-09-22T05:00:26.124Z,99.90
2022-09-22T05:02:53.223Z,99.90
2022-09-22T05:05:20.035Z,99.90
2022-09-22T05:07:48.592Z,99.90
2022-09-22T05:10:17.790Z,99.90
2022-09-22T05:12:44.754Z,99.90
2022-09-22T05:15:13.236Z,99.90
2022-09-22T05:17:47.410Z,99.90
2022-09-22T05:20:14.305Z,99.90
2022-09-22T05:22:41.861Z,99.90
2022-09-22T05:25:11.193Z,99.90
2022-09-22T05:27:45.383Z,99.90
2022-09-22T05:30:12.668Z,99.90
2022-09-22T05:32:42.752Z,99.90
2022-09-22T05:35:10.306Z,99.90
2022-09-22T05:37:37.359Z,99.90
2022-09-22T05:40:05.235Z,99.90
2022-09-22T05:42:31.971Z,99.90
2022-09-22T05:44:58.729Z,99.90
2022-09-22T05:47:25.451Z,99.90
2022-09-22T05:49:52.134Z,99.90
2022-09-22T05:52:18.789Z,99.90
2022-09-22T05:54:45.484Z,99.90
2022-09-22T05:57:12.142Z,99.90
2022-09-22T05:59:38.854Z,99.90
2022-09-22T06:02:23.732Z,99.90
2022-09-22T06:04:52.132Z,99.90
2022-09-22T06:07:20.379Z,99.90
2022-09-22T06:09:48.130Z,99.90
2022-09-22T06:12:15.214Z,99.90
2022-09-22T06:14:41.903Z,99.90
2022-09-22T06:17:11.867Z,99.90
2022-09-22T06:19:39.537Z,99.90
2022-09-22T06:22:06.708Z,99.90
2022-09-22T06:24:33.456Z,99.90
2022-09-22T06:27:00.146Z,99.90
2022-09-22T06:29:26.830Z,99.90
2022-09-22T06:31:53.612Z,99.90
2022-09-22T06:34:20.389Z,99.90
2022-09-22T06:36:47.103Z,99.90
2022-09-22T06:39:14.249Z,99.90
2022-09-22T06:41:40.979Z,99.90
2022-09-22T06:44:08.178Z,99.90
2022-09-22T06:46:34.982Z,99.90
2022-09-22T06:49:02.495Z,99.90
2022-09-22T06:51:33.610Z,99.90
2022-09-22T06:54:02.883Z,99.90
2022-09-22T06:56:32.911Z,99.90
2022-09-22T06:59:10.501Z,99.90
2022-09-22T07:01:37.920Z,99.90
2022-09-22T07:04:04.799Z,99.90
2022-09-22T07:06:31.794Z,99.90
2022-09-22T07:08:58.467Z,99.90
2022-09-22T07:11:25.148Z,99.90
2022-09-22T07:13:53.365Z,99.90
2022-09-22T07:16:22.332Z,99.90
2022-09-22T07:18:53.953Z,99.90
2022-09-22T07:21:26.345Z,99.90
2022-09-22T07:23:56.899Z,99.90
2022-09-22T07:26:30.788Z,99.90
2022-09-22T07:28:59.589Z,99.90
2022-09-22T07:31:29.032Z,99.90
2022-09-22T07:33:56.542Z,99.90
2022-09-22T07:36:26.092Z,99.90
2022-09-22T07:38:54.762Z,99.90
2022-09-22T07:41:27.474Z,99.90
2022-09-22T07:44:18.465Z,99.90
2022-09-22T07:46:45.644Z,99.90
2022-09-22T07:49:12.424Z,99.90
2022-09-22T07:51:39.065Z,99.90
2022-09-22T07:54:08.594Z,99.90
2022-09-22T07:56:36.983Z,99.90
2022-09-22T07:59:06.016Z,99.90
2022-09-22T08:01:33.055Z,99.90
2022-09-22T08:04:00.261Z,99.90
2022-09-22T08:06:28.064Z,99.90
2022-09-22T08:08:56.629Z,99.90
2022-09-22T08:11:27.958Z,99.90
2022-09-22T08:13:57.066Z,99.90
2022-09-22T08:16:26.065Z,99.90
2022-09-22T08:18:56.566Z,99.90
2022-09-22T08:21:26.964Z,99.90
2022-09-22T08:23:54.414Z,99.90
2022-09-22T08:26:21.435Z,99.90
2022-09-22T08:28:52.243Z,99.90
2022-09-22T08:31:20.656Z,99.90
2022-09-22T08:33:54.069Z,99.90
2022-09-22T08:36:21.548Z,99.90
2022-09-22T08:38:49.310Z,99.90
2022-09-22T08:41:27.989Z,99.90
2022-09-22T08:44:00.531Z,99.90
2022-09-22T08:46:32.218Z,99.90
2022-09-22T08:49:24.606Z,99.90
2022-09-22T08:51:54.933Z,99.90
2022-09-22T08:54:24.994Z,99.90
2022-09-22T08:56:57.925Z,99.90
2022-09-22T08:59:58.297Z,99.90
2022-09-22T09:02:44.373Z,99.90
2022-09-22T09:05:23.624Z,99.90
2022-09-22T09:08:05.571Z,99.90
2022-09-22T09:10:57.258Z,99.90
2022-09-22T09:13:37.049Z,99.90
2022-09-22T09:16:30.909Z,99.90
2022-09-22T09:19:04.729Z,99.90
2022-09-22T09:21:35.156Z,99.90
2022-09-22T09:26:52.354Z,99.90
2022-09-22T09:29:22.039Z,99.90
2022-09-22T09:31:52.466Z,99.90
2022-09-22T09:34:21.950Z,99.90
2022-09-22T09:36:51.907Z,99.90
2022-09-22T09:39:30.698Z,99.90
2022-09-22T09:41:57.495Z,99.90
2022-09-22T09:44:31.878Z,99.90
2022-09-22T09:47:11.541Z,99.90
2022-09-22T09:49:38.174Z,99.90
2022-09-22T09:52:09.637Z,99.90
2022-09-22T09:54:37.666Z,99.90
2022-09-22T09:57:15.159Z,99.90
2022-09-22T10:00:02.630Z,99.90
2022-09-22T10:02:31.683Z,99.90
2022-09-22T10:05:04.777Z,99.90
2022-09-22T10:07:40.593Z,99.90
2022-09-22T10:10:29.436Z,99.90
2022-09-22T10:13:44.817Z,99.90
2022-09-22T10:16:22.968Z,99.90
2022-09-22T10:19:29.575Z,99.90
2022-09-22T10:22:27.547Z,99.90
2022-09-22T10:25:04.354Z,99.90
2022-09-22T10:27:31.817Z,99.90
2022-09-22T10:30:25.168Z,99.90
2022-09-22T10:33:16.458Z,99.90
2022-09-22T10:36:12.061Z,99.90
2022-09-22T10:41:13.029Z,99.90
2022-09-22T10:44:35.090Z,99.90
2022-09-22T10:47:07.118Z,99.90
2022-09-22T10:49:39.914Z,99.90
2022-09-22T10:52:15.808Z,99.90
2022-09-22T10:54:51.457Z,99.90
2022-09-22T10:57:37.605Z,99.90
2022-09-22T11:00:11.900Z,99.90
2022-09-22T11:03:16.582Z,99.90
2022-09-22T11:06:28.027Z,99.90
2022-09-22T11:09:22.727Z,99.90
2022-09-22T11:12:17.106Z,99.90
2022-09-22T11:15:24.479Z,99.90
2022-09-22T11:17:53.980Z,99.90
2022-09-22T11:20:39.735Z,99.90
2022-09-22T11:23:37.100Z,99.70
2022-09-22T11:26:12.763Z,98.90
2022-09-22T11:28:58.567Z,98.70
2022-09-22T11:31:37.594Z,98.90
2022-09-22T11:34:12.902Z,98.80
2022-09-22T11:36:51.627Z,97.60
2022-09-22T11:39:20.922Z,97.20
2022-09-22T11:42:16.004Z,97.00
2022-09-22T11:44:48.727Z,96.80
2022-09-22T11:47:37.638Z,96.60
2022-09-22T11:50:31.625Z,95.90
2022-09-22T11:53:13.446Z,95.80
2022-09-22T11:55:58.748Z,96.00
2022-09-22T11:58:27.300Z,95.30
2022-09-22T12:01:15.475Z,95.80
2022-09-22T12:03:43.867Z,96.10
2022-09-22T12:06:14.863Z,96.10
2022-09-22T12:09:06.970Z,96.50
2022-09-22T12:11:35.740Z,96.60
2022-09-22T12:14:02.944Z,96.40
2022-09-22T12:16:50.609Z,96.30
2022-09-22T12:19:45.780Z,95.50
2022-09-22T12:22:17.829Z,94.40
2022-09-22T12:24:47.945Z,92.80
2022-09-22T12:27:24.036Z,91.60
2022-09-22T12:29:59.180Z,90.80
2022-09-22T12:32:36.036Z,89.20
2022-09-22T12:35:03.141Z,85.90
2022-09-22T12:37:32.032Z,84.20
2022-09-22T12:40:37.195Z,84.00
2022-09-22T12:43:03.948Z,84.80
2022-09-22T12:45:38.099Z,83.40
2022-09-22T12:48:19.517Z,82.00
2022-09-22T12:50:46.521Z,80.10
2022-09-22T12:53:22.326Z,80.20
2022-09-22T12:55:50.317Z,79.50
2022-09-22T12:58:23.639Z,78.10
2022-09-22T13:00:54.462Z,77.20
2022-09-22T13:03:27.396Z,77.80
2022-09-22T13:06:20.114Z,77.50
2022-09-22T13:08:52.945Z,79.70
2022-09-22T13:11:20.102Z,81.50
2022-09-22T13:13:50.852Z,81.10
2022-09-22T13:16:17.889Z,79.50
2022-09-22T13:18:51.976Z,78.10
2022-09-22T13:21:23.090Z,77.30
2022-09-22T13:23:58.835Z,75.90
2022-09-22T13:26:37.423Z,76.70
2022-09-22T13:29:15.626Z,77.00
2022-09-22T13:31:52.918Z,78.00
2022-09-22T13:34:21.319Z,78.00
2022-09-22T13:36:48.222Z,79.40
2022-09-22T13:39:17.786Z,81.20
2022-09-22T13:41:50.499Z,82.30
2022-09-22T13:44:20.947Z,83.30
2022-09-22T13:46:48.406Z,84.30
2022-09-22T13:49:34.897Z,85.00
2022-09-22T13:52:12.963Z,85.30
2022-09-22T13:54:39.819Z,84.80
2022-09-22T13:57:08.058Z,83.00
2022-09-22T13:59:41.645Z,83.60
2022-09-22T14:02:11.273Z,84.50
2022-09-22T14:04:38.187Z,84.40
2022-09-22T14:07:10.340Z,85.40
2022-09-22T14:09:38.274Z,86.50
2022-09-22T14:12:07.210Z,86.20
2022-09-22T14:14:33.878Z,87.40
2022-09-22T14:17:08.944Z,87.90
2022-09-22T14:19:37.771Z,87.80
2022-09-22T14:22:14.665Z,88.20
2022-09-22T14:24:43.891Z,88.50
2022-09-22T14:27:18.155Z,89.00
2022-09-22T14:29:48.695Z,89.30
2022-09-22T14:32:31.483Z,89.80
2022-09-22T14:34:58.836Z,90.10
2022-09-22T14:37:45.525Z,90.90
2022-09-22T14:40:20.515Z,90.60
2022-09-22T14:43:10.089Z,90.40
2022-09-22T14:45:37.460Z,90.80
2022-09-22T14:48:17.373Z,90.80
2022-09-22T14:50:48.622Z,90.90
2022-09-22T14:53:29.381Z,91.40
2022-09-22T14:56:22.977Z,92.00
2022-09-22T14:58:52.179Z,92.60
2022-09-22T15:01:59.486Z,92.70
2022-09-22T15:04:27.518Z,93.10
2022-09-22T15:06:56.467Z,92.40
2022-09-22T15:09:32.080Z,92.60
2022-09-22T15:12:00.454Z,92.80
2022-09-22T15:14:41.428Z,93.70
2022-09-22T15:18:02.048Z,94.00
2022-09-22T15:20:35.016Z,93.90
2022-09-22T15:23:02.186Z,94.00
2022-09-22T15:25:28.945Z,93.90
2022-09-22T15:27:55.674Z,93.70
2022-09-22T15:30:54.637Z,93.60
2022-09-22T15:33:26.877Z,94.00
2022-09-22T15:35:56.346Z,94.30
2022-09-22T15:38:26.730Z,94.20
2022-09-22T15:40:53.657Z,94.70
2022-09-22T15:43:23.135Z,94.90
2022-09-22T15:45:52.621Z,95.20
2022-09-22T15:48:25.460Z,95.80
2022-09-22T15:50:52.857Z,95.90
2022-09-22T15:53:20.821Z,96.50
2022-09-22T15:55:48.122Z,96.90
2022-09-22T15:58:16.145Z,97.30
2022-09-22T16:00:43.039Z,97.30
2022-09-22T16:03:22.512Z,97.30
2022-09-22T16:05:56.958Z,97.80
2022-09-22T16:08:29.602Z,97.80
2022-09-22T16:10:57.012Z,97.90
2022-09-22T16:13:24.593Z,98.80
2022-09-22T16:15:51.383Z,99.30
2022-09-22T16:18:18.196Z,99.10
2022-09-22T16:20:46.535Z,99.90
2022-09-22T16:23:13.279Z,99.60
2022-09-22T16:25:42.071Z,99.70
2022-09-22T16:28:10.387Z,99.90
2022-09-22T16:30:37.555Z,99.90
2022-09-22T16:33:05.109Z,99.90
2022-09-22T16:35:31.851Z,99.90
2022-09-22T16:37:58.530Z,99.90
2022-09-22T16:40:25.703Z,99.90
2022-09-22T16:42:52.583Z,99.90
2022-09-22T16:45:39.284Z,99.90
2022-09-22T16:48:07.052Z,99.90
2022-09-22T16:50:36.912Z,99.90
2022-09-22T16:53:05.048Z,99.90
2022-09-22T16:55:35.572Z,99.90
2022-09-22T16:58:07.268Z,99.90
2022-09-22T17:00:34.029Z,99.90
2022-09-22T17:03:01.008Z,99.90
2022-09-22T17:05:28.007Z,99.90
2022-09-22T17:07:54.750Z,99.90
2022-09-22T17:10:21.449Z,99.90
2022-09-22T17:12:48.243Z,99.90
2022-09-22T17:15:16.298Z,99.90
2022-09-22T17:17:43.574Z,99.90
2022-09-22T17:20:10.490Z,99.90
2022-09-22T17:22:37.474Z,99.90
2022-09-22T17:25:04.629Z,99.90
2022-09-22T17:27:31.389Z,99.90
2022-09-22T17:29:59.000Z,99.90
2022-09-22T17:32:28.016Z,99.90
2022-09-22T17:34:55.052Z,99.90
2022-09-22T17:37:22.111Z,99.90
2022-09-22T17:39:57.931Z,99.90
2022-09-22T17:42:25.570Z,99.90
2022-09-22T17:44:52.416Z,99.90
2022-09-22T17:47:38.001Z,99.90
2022-09-22T17:50:23.704Z,99.90
2022-09-22T17:53:09.193Z,99.90
2022-09-22T17:55:35.924Z,99.90
2022-09-22T17:58:02.776Z,99.90
2022-09-22T18:00:30.263Z,99.90
2022-09-22T18:02:58.309Z,99.90
2022-09-22T18:05:26.642Z,99.90
2022-09-22T18:07:57.730Z,99.90
2022-09-22T18:10:32.117Z,99.90
2022-09-22T18:12:59.464Z,99.90
2022-09-22T18:15:28.096Z,99.90
2022-09-22T18:17:57.658Z,99.90
2022-09-22T18:20:27.703Z,99.90
2022-09-22T18:22:55.285Z,99.90
2022-09-22T18:25:25.625Z,99.90
2022-09-22T18:27:53.591Z,99.90
2022-09-22T18:30:20.616Z,99.90
2022-09-22T18:32:50.465Z,99.90
2022-09-22T18:35:17.182Z,99.90
2022-09-22T18:37:44.005Z,99.90
2022-09-22T18:40:12.260Z,99.90
2022-09-22T18:42:39.699Z,99.90
2022-09-22T18:45:06.918Z,99.90
2022-09-22T18:47:39.562Z,99.90
2022-09-22T18:50:07.022Z,99.90
2022-09-22T18:52:34.561Z,99.90
2022-09-22T18:55:01.915Z,99.90
2022-09-22T18:57:28.682Z,99.90
2022-09-22T18:59:59.831Z,99.90
2022-09-22T19:02:26.774Z,99.90
2022-09-22T19:04:53.704Z,99.90
2022-09-22T19:07:42.423Z,99.90
2022-09-22T19:10:15.058Z,99.90
2022-09-22T19:12:42.578Z,99.90
2022-09-22T19:15:13.381Z,99.90
2022-09-22T19:17:43.821Z,99.90
2022-09-22T19:20:15.659Z,99.90
2022-09-22T19:22:42.523Z,99.90
2022-09-22T19:25:10.521Z,99.90
2022-09-22T19:27:38.502Z,99.90
2022-09-22T19:30:06.182Z,99.90
2022-09-22T19:32:32.990Z,99.90
2022-09-22T19:34:59.715Z,99.90
2022-09-22T19:37:28.156Z,99.90
2022-09-22T19:39:55.285Z,99.90
2022-09-22T19:42:22.069Z,99.90
2022-09-22T19:44:48.905Z,99.90
2022-09-22T19:47:16.014Z,99.90
2022-09-22T19:49:42.844Z,99.90
2022-09-22T19:52:09.847Z,99.90
2022-09-22T19:54:36.715Z,99.90
2022-09-22T19:57:03.624Z,99.90
2022-09-22T19:59:30.520Z,99.90
2022-09-22T20:01:57.259Z,99.90
2022-09-22T20:04:24.003Z,99.90
2022-09-22T20:06:50.678Z,99.90
2022-09-22T20:09:17.520Z,99.90
2022-09-22T20:11:48.975Z,99.90
2022-09-22T20:14:27.077Z,99.90
2022-09-22T20:16:55.913Z,99.90
2022-09-22T20:19:24.403Z,99.90
2022-09-22T20:21:51.418Z,99.90
2022-09-22T20:24:20.053Z,99.90
2022-09-22T20:26:46.891Z,99.90
2022-09-22T20:29:15.007Z,99.90
2022-09-22T20:31:42.254Z,99.90
2022-09-22T20:34:12.337Z,99.90
2022-09-22T20:36:39.083Z,99.90
2022-09-22T20:39:06.060Z,99.90
2022-09-22T20:41:32.918Z,99.90
2022-09-22T20:43:59.805Z,99.90
2022-09-22T20:46:26.794Z,99.90
2022-09-22T20:48:56.496Z,99.90
2022-09-22T20:51:23.671Z,99.90
2022-09-22T20:53:50.554Z,99.90
2022-09-22T20:56:17.968Z,99.90
2022-09-22T20:58:45.899Z,99.90
2022-09-22T21:01:14.768Z,99.90
2022-09-22T21:03:41.874Z,99.90
2022-09-22T21:06:10.138Z,99.90
2022-09-22T21:08:56.802Z,99.90
2022-09-22T21:11:24.359Z,99.90
2022-09-22T21:13:53.045Z,99.90
2022-09-22T21:16:19.884Z,99.90
2022-09-22T21:18:48.720Z,99.90
2022-09-22T21:21:17.619Z,99.90
2022-09-22T21:23:45.027Z,99.90
2022-09-22T21:26:12.330Z,99.90
2022-09-22T21:28:39.135Z,99.90
2022-09-22T21:31:08.441Z,99.90
2022-09-22T21:33:35.690Z,99.90
2022-09-22T21:36:13.721Z,99.90
2022-09-22T21:38:42.108Z,99.90
2022-09-22T21:41:14.236Z,99.90
2022-09-22T21:43:41.362Z,99.90
2022-09-22T21:46:12.852Z,99.90
2022-09-22T21:48:39.622Z,99.90
2022-09-22T21:51:07.538Z,99.90
2022-09-22T21:53:35.177Z,99.90
2022-09-22T21:56:14.437Z,99.90
2022-09-22T21:58:43.352Z,99.90
2022-09-22T22:01:18.574Z,99.90
2022-09-22T22:03:46.408Z,99.90
2022-09-22T22:06:23.606Z,99.90
2022-09-22T22:09:00.857Z,99.90
2022-09-22T22:11:31.143Z,99.90
2022-09-22T22:13:58.556Z,99.90
2022-09-22T22:16:30.301Z,99.90
2022-09-22T22:18:57.340Z,99.90
2022-09-22T22:21:26.427Z,99.90
2022-09-22T22:23:54.932Z,99.90
2022-09-22T22:26:25.614Z,99.90
2022-09-22T22:28:52.852Z,99.90
2022-09-22T22:31:22.561Z,99.90
2022-09-22T22:33:49.845Z,99.90
2022-09-22T22:36:18.017Z,99.90
2022-09-22T22:38:45.144Z,99.90
2022-09-22T22:41:14.027Z,99.90
2022-09-22T22:43:41.105Z,99.90
2022-09-22T22:46:09.026Z,99.90
2022-09-22T22:48:36.189Z,99.90
2022-09-22T22:51:13.878Z,99.90
2022-09-22T22:53:41.258Z,99.90
2022-09-22T22:56:12.786Z,99.90
2022-09-22T22:58:39.766Z,99.90
2022-09-22T23:01:10.081Z,99.90
2022-09-22T23:03:42.057Z,99.90
2022-09-22T23:06:10.354Z,99.90
2022-09-22T23:08:37.633Z,99.90
2022-09-22T23:11:06.880Z,99.90
2022-09-22T23:13:33.616Z,99.90
2022-09-22T23:16:05.009Z,99.90
2022-09-22T23:18:32.216Z,99.90
2022-09-22T23:20:59.063Z,99.90
2022-09-22T23:23:25.715Z,99.90
2022-09-22T23:25:53.281Z,99.90
2022-09-22T23:28:20.473Z,99.90
2022-09-22T23:30:47.232Z,99.90
2022-09-22T23:33:14.000Z,99.90
2022-09-22T23:35:40.800Z,99.90
2022-09-22T23:38:08.995Z,99.90
2022-09-22T23:40:36.003Z,99.90
2022-09-22T23:43:02.753Z,99.90
2022-09-22T23:45:29.456Z,99.90
2022-09-22T23:47:56.142Z,99.90
2022-09-22T23:50:23.416Z,99.90
2022-09-22T23:52:50.876Z,99.90
2022-09-22T23:55:18.951Z,99.90
2022-09-22T23:57:45.854Z,99.90
